createdAt,value
2022-09-13T00:02:14.189Z,323.20
2022-09-13T00:04:41.111Z,312.97
2022-09-13T00:07:07.633Z,316.10
2022-09-13T00:09:34.205Z,315.30
2022-09-13T00:12:00.810Z,316.27
2022-09-13T00:14:27.432Z,314.57
2022-09-13T00:16:53.967Z,314.33
2022-09-13T00:19:20.623Z,314.42
2022-09-13T00:21:47.282Z,311.33
2022-09-13T00:24:13.908Z,303.00
2022-09-13T00:26:40.521Z,306.38
2022-09-13T00:29:07.099Z,296.45
2022-09-13T00:31:33.660Z,290.23
2022-09-13T00:34:00.649Z,283.70
2022-09-13T00:36:27.353Z,282.25
2022-09-13T00:38:53.934Z,281.38
2022-09-13T00:41:21.112Z,285.65
2022-09-13T00:43:57.166Z,293.42
2022-09-13T00:46:35.590Z,287.63
2022-09-13T00:49:11.822Z,292.60
2022-09-13T00:51:39.973Z,280.55
2022-09-13T00:54:06.542Z,282.98
2022-09-13T00:56:47.857Z,283.80
2022-09-13T00:59:22.989Z,272.73
2022-09-13T01:01:53.457Z,278.13
2022-09-13T01:04:22.792Z,276.25
2022-09-13T01:06:53.027Z,275.75
2022-09-13T01:09:19.845Z,273.83
2022-09-13T01:11:50.330Z,279.23
2022-09-13T01:14:19.573Z,284.20
2022-09-13T01:16:47.971Z,268.02
2022-09-13T01:19:15.023Z,269.05
2022-09-13T01:22:02.851Z,275.08
2022-09-13T01:24:47.794Z,278.70
2022-09-13T01:27:49.841Z,276.33
2022-09-13T01:30:19.415Z,278.75
2022-09-13T01:33:30.918Z,291.95
2022-09-13T01:36:16.088Z,300.98
2022-09-13T01:38:50.983Z,309.38
2022-09-13T01:41:32.801Z,320.23
2022-09-13T01:44:18.378Z,338.10
2022-09-13T01:47:06.436Z,330.13
2022-09-13T01:49:42.324Z,328.58
2022-09-13T01:52:15.132Z,333.05
2022-09-13T01:55:06.585Z,330.13
2022-09-13T01:57:35.634Z,337.67
2022-09-13T02:00:10.473Z,348.23
2022-09-13T02:02:46.074Z,347.48
2022-09-13T02:05:36.770Z,344.55
2022-09-13T02:08:29.322Z,348.02
2022-09-13T02:11:08.298Z,361.02
2022-09-13T02:13:48.184Z,367.53
2022-09-13T02:16:53.334Z,372.83
2022-09-13T02:19:26.838Z,378.48
2022-09-13T02:21:58.775Z,374.15
2022-09-13T02:24:37.022Z,362.40
2022-09-13T02:27:08.914Z,360.45
2022-09-13T02:29:40.039Z,369.25
2022-09-13T02:32:12.141Z,362.83
2022-09-13T02:34:44.002Z,359.92
2022-09-13T02:37:12.974Z,373.58
2022-09-13T02:39:47.324Z,378.25
2022-09-13T02:42:29.802Z,366.17
2022-09-13T02:45:01.270Z,383.90
2022-09-13T02:47:38.681Z,378.25
2022-09-13T02:50:17.677Z,388.50
2022-09-13T02:53:16.789Z,400.10
2022-09-13T02:55:53.773Z,385.63
2022-09-13T02:58:32.096Z,389.20
2022-09-13T03:00:58.818Z,393.67
2022-09-13T03:03:25.405Z,401.08
2022-09-13T03:05:53.782Z,387.55
2022-09-13T03:08:22.168Z,391.55
2022-09-13T03:10:58.780Z,385.30
2022-09-13T03:13:28.097Z,395.13
2022-09-13T03:16:16.720Z,376.42
2022-09-13T03:19:02.108Z,381.27
2022-09-13T03:22:01.922Z,385.40
2022-09-13T03:24:50.164Z,389.88
2022-09-13T03:27:25.998Z,382.60
2022-09-13T03:30:02.201Z,380.02
2022-09-13T03:32:50.167Z,368.30
2022-09-13T03:35:44.772Z,371.33
2022-09-13T03:38:55.529Z,365.92
2022-09-13T03:41:36.961Z,386.73
2022-09-13T03:44:08.862Z,389.50
2022-09-13T03:46:40.657Z,385.98
2022-09-13T03:49:14.239Z,389.35
2022-09-13T03:51:43.006Z,408.25
2022-09-13T03:54:25.766Z,407.70
2022-09-13T03:57:13.420Z,421.38
2022-09-13T03:59:47.192Z,424.90
2022-09-13T04:02:14.805Z,430.95
2022-09-13T04:04:43.057Z,430.50
2022-09-13T04:07:12.219Z,423.27
2022-09-13T04:09:39.714Z,438.27
2022-09-13T04:12:06.843Z,441.50
2022-09-13T04:14:33.499Z,448.83
2022-09-13T04:17:00.355Z,441.08
2022-09-13T04:19:27.055Z,449.27
2022-09-13T04:21:55.850Z,453.42
2022-09-13T04:24:25.701Z,437.63
2022-09-13T04:26:53.606Z,449.30
2022-09-13T04:29:21.319Z,448.77
2022-09-13T04:31:49.238Z,453.10
2022-09-13T04:34:17.357Z,455.67
2022-09-13T04:36:44.517Z,453.58
2022-09-13T04:39:11.613Z,457.17
2022-09-13T04:41:38.609Z,452.80
2022-09-13T04:44:05.195Z,454.27
2022-09-13T04:46:33.881Z,454.30
2022-09-13T04:49:00.882Z,451.35
2022-09-13T04:51:27.594Z,456.15
2022-09-13T04:53:55.294Z,456.45
2022-09-13T04:56:23.492Z,460.35
2022-09-13T04:58:56.753Z,463.23
2022-09-13T05:01:27.882Z,440.35
2022-09-13T05:03:55.436Z,450.25
2022-09-13T05:06:23.000Z,462.00
2022-09-13T05:08:55.355Z,449.70
2022-09-13T05:11:24.387Z,456.23
2022-09-13T05:13:53.111Z,453.50
2022-09-13T05:16:20.214Z,433.05
2022-09-13T05:18:47.230Z,442.27
2022-09-13T05:21:14.346Z,439.13
2022-09-13T05:23:41.137Z,455.70
2022-09-13T05:26:15.791Z,449.55
2022-09-13T05:28:42.509Z,416.85
2022-09-13T05:31:20.529Z,432.70
2022-09-13T05:33:52.296Z,449.67
2022-09-13T05:36:19.670Z,434.30
2022-09-13T05:38:46.405Z,449.38
2022-09-13T05:41:13.051Z,474.85
2022-09-13T05:43:39.762Z,441.38
2022-09-13T05:46:10.434Z,478.65
2022-09-13T05:48:37.683Z,456.40
2022-09-13T05:51:08.590Z,469.58
2022-09-13T05:53:43.287Z,455.25
2022-09-13T05:56:16.786Z,460.58
2022-09-13T05:58:46.276Z,446.87
2022-09-13T06:01:13.570Z,445.75
2022-09-13T06:03:40.756Z,471.92
2022-09-13T06:06:10.579Z,451.27
2022-09-13T06:08:40.139Z,434.90
2022-09-13T06:11:09.216Z,445.23
2022-09-13T06:13:36.939Z,436.25
2022-09-13T06:16:09.638Z,433.88
2022-09-13T06:18:37.005Z,441.92
2022-09-13T06:21:06.754Z,430.77
2022-09-13T06:23:33.760Z,446.00
2022-09-13T06:26:12.357Z,441.83
2022-09-13T06:28:39.185Z,425.52
2022-09-13T06:31:11.441Z,433.00
2022-09-13T06:33:40.937Z,427.65
2022-09-13T06:36:16.012Z,438.27
2022-09-13T06:38:42.894Z,434.98
2022-09-13T06:41:14.251Z,457.20
2022-09-13T06:43:41.848Z,425.20
2022-09-13T06:46:12.023Z,420.95
2022-09-13T06:48:40.840Z,431.25
2022-09-13T06:51:15.959Z,419.35
2022-09-13T06:53:44.220Z,408.05
2022-09-13T06:56:29.387Z,415.92
2022-09-13T06:58:58.445Z,422.83
2022-09-13T07:01:28.440Z,429.83
2022-09-13T07:03:59.466Z,420.98
2022-09-13T07:06:29.086Z,433.98
2022-09-13T07:08:57.494Z,426.55
2022-09-13T07:11:26.782Z,443.67
2022-09-13T07:13:56.491Z,431.75
2022-09-13T07:16:26.021Z,413.90
2022-09-13T07:18:55.167Z,414.83
2022-09-13T07:21:23.041Z,435.23
2022-09-13T07:23:51.117Z,443.30
2022-09-13T07:26:17.930Z,433.83
2022-09-13T07:28:48.041Z,406.63
2022-09-13T07:31:26.851Z,421.85
2022-09-13T07:33:57.946Z,395.75
2022-09-13T07:36:25.525Z,372.52
2022-09-13T07:38:52.751Z,326.93
2022-09-13T07:41:22.057Z,318.92
2022-09-13T07:43:49.375Z,318.58
2022-09-13T07:46:18.726Z,308.95
2022-09-13T07:48:47.184Z,295.55
2022-09-13T07:51:18.055Z,260.83
2022-09-13T07:53:46.249Z,269.40
2022-09-13T07:56:16.449Z,262.88
2022-09-13T07:58:48.481Z,265.92
2022-09-13T08:01:26.693Z,273.27
2022-09-13T08:03:54.637Z,282.52
2022-09-13T08:06:22.777Z,288.10
2022-09-13T08:11:32.493Z,286.08
2022-09-13T08:14:00.383Z,287.00
2022-09-13T08:16:28.770Z,286.00
2022-09-13T08:18:57.381Z,271.05
2022-09-13T08:21:25.723Z,264.42
2022-09-13T08:23:56.844Z,255.93
2022-09-13T08:26:23.846Z,253.18
2022-09-13T08:28:55.291Z,254.55
2022-09-13T08:31:23.242Z,209.32
2022-09-13T08:33:50.201Z,193.40
2022-09-13T08:36:18.611Z,219.30
2022-09-13T08:38:48.292Z,176.68
2022-09-13T08:41:42.393Z,161.93
2022-09-13T08:44:36.097Z,142.55
2022-09-13T08:47:24.646Z,147.95
2022-09-13T08:50:06.256Z,169.70
2022-09-13T08:52:40.560Z,186.35
2022-09-13T08:55:28.466Z,166.63
2022-09-13T08:58:12.559Z,168.50
2022-09-13T09:00:44.100Z,194.13
2022-09-13T09:03:44.198Z,188.30
2022-09-13T09:06:18.530Z,177.90
2022-09-13T09:08:54.437Z,207.75
2022-09-13T09:12:02.120Z,222.32
2022-09-13T09:15:01.073Z,165.90
2022-09-13T09:17:44.758Z,151.55
2022-09-13T09:20:39.611Z,151.40
2022-09-13T09:23:20.474Z,131.05
2022-09-13T09:25:51.153Z,132.80
2022-09-13T09:28:22.480Z,58.88
2022-09-13T09:31:00.879Z,23.88
2022-09-13T09:34:12.370Z,35.00
2022-09-13T09:36:44.389Z,28.25
2022-09-13T09:39:14.465Z,31.52
2022-09-13T09:41:41.543Z,24.20
2022-09-13T09:44:19.167Z,19.67
2022-09-13T09:47:04.462Z,23.95
2022-09-13T09:49:58.374Z,14.77
2022-09-13T09:52:53.585Z,11.43
2022-09-13T09:55:23.332Z,10.25
2022-09-13T09:57:51.336Z,7.85
2022-09-13T10:00:18.800Z,6.10
2022-09-13T10:02:47.388Z,6.80
2022-09-13T10:05:19.769Z,5.57
2022-09-13T10:08:00.933Z,6.60
2022-09-13T10:10:54.822Z,4.95
2022-09-13T10:13:26.461Z,5.07
2022-09-13T10:15:58.453Z,7.27
2022-09-13T10:18:44.917Z,8.77
2022-09-13T10:21:19.026Z,6.03
2022-09-13T10:23:53.355Z,4.03
2022-09-13T10:26:25.900Z,9.98
2022-09-13T10:29:15.365Z,7.63
2022-09-13T10:31:54.670Z,10.20
2022-09-13T10:34:26.417Z,8.52
2022-09-13T10:37:05.826Z,7.65
2022-09-13T10:42:27.180Z,7.88
2022-09-13T10:50:36.362Z,8.80
2022-09-13T10:53:05.317Z,9.85
2022-09-13T10:55:52.816Z,7.88
2022-09-13T10:58:22.455Z,7.57
2022-09-13T11:01:17.227Z,6.20
2022-09-13T11:04:02.558Z,5.93
2022-09-13T11:06:48.384Z,8.02
2022-09-13T11:09:21.065Z,9.45
2022-09-13T11:12:14.976Z,8.27
2022-09-13T11:15:15.068Z,8.52
2022-09-13T11:18:26.173Z,7.25
2022-09-13T11:24:37.377Z,11.40
2022-09-13T11:27:22.914Z,7.95
2022-09-13T11:30:18.414Z,7.85
2022-09-13T11:41:54.061Z,5.95
2022-09-13T11:44:42.448Z,7.40
2022-09-13T11:47:21.198Z,8.52
2022-09-13T11:50:00.051Z,6.63
2022-09-13T11:52:50.264Z,7.55
2022-09-13T11:55:38.120Z,4.90
2022-09-13T11:58:11.932Z,5.22
2022-09-13T12:00:44.385Z,6.10
2022-09-13T12:03:11.253Z,6.20
2022-09-13T12:05:53.036Z,6.80
2022-09-13T12:08:26.906Z,5.95
2022-09-13T12:11:11.815Z,6.18
2022-09-13T12:14:05.732Z,10.02
2022-09-13T12:16:38.507Z,7.25
2022-09-13T12:19:22.721Z,7.45
2022-09-13T12:21:53.699Z,6.78
2022-09-13T12:24:45.423Z,5.70
2022-09-13T12:27:40.158Z,8.07
2022-09-13T12:30:19.732Z,8.68
2022-09-13T12:32:48.291Z,6.57
2022-09-13T12:35:37.773Z,9.00
2022-09-13T12:38:43.274Z,6.30
2022-09-13T12:41:30.454Z,5.60
2022-09-13T12:44:15.162Z,6.82
2022-09-13T12:47:16.057Z,8.07
2022-09-13T12:50:22.625Z,6.35
2022-09-13T12:53:50.414Z,10.27
2022-09-13T12:56:34.903Z,9.23
2022-09-13T12:59:30.361Z,10.05
2022-09-13T13:02:00.335Z,6.63
2022-09-13T13:04:37.010Z,10.98
2022-09-13T13:07:07.115Z,4.93
2022-09-13T13:09:47.949Z,7.20
2022-09-13T13:12:36.953Z,7.38
2022-09-13T13:15:07.883Z,10.10
2022-09-13T13:17:52.144Z,8.10
2022-09-13T13:20:57.778Z,7.60
2022-09-13T13:23:28.561Z,7.68
2022-09-13T13:25:57.922Z,5.80
2022-09-13T13:28:43.077Z,4.55
2022-09-13T13:31:33.115Z,12.07
2022-09-13T13:34:02.626Z,7.53
2022-09-13T13:36:44.856Z,7.40
2022-09-13T13:39:23.271Z,5.70
2022-09-13T13:41:55.530Z,10.68
2022-09-13T13:44:22.159Z,5.32
2022-09-13T13:46:54.418Z,4.78
2022-09-13T13:49:30.098Z,7.15
2022-09-13T13:52:08.921Z,7.18
2022-09-13T13:54:44.630Z,5.22
2022-09-13T13:57:33.077Z,7.55
2022-09-13T14:00:16.346Z,6.30
2022-09-13T14:02:42.850Z,6.15
2022-09-13T14:05:46.179Z,8.27
2022-09-13T14:11:55.702Z,6.35
2022-09-13T14:14:31.026Z,8.27
2022-09-13T14:17:31.804Z,9.05
2022-09-13T14:20:08.718Z,10.60
2022-09-13T14:22:35.453Z,20.95
2022-09-13T14:25:23.867Z,31.85
2022-09-13T14:27:56.104Z,29.67
2022-09-13T14:30:27.019Z,25.33
2022-09-13T14:32:56.140Z,14.90
2022-09-13T14:35:30.723Z,19.02
2022-09-13T14:38:19.008Z,11.98
2022-09-13T14:40:54.199Z,9.88
2022-09-13T14:43:24.178Z,8.35
2022-09-13T14:46:13.616Z,11.88
2022-09-13T14:49:03.062Z,10.07
2022-09-13T14:52:04.921Z,14.63
2022-09-13T14:54:40.715Z,11.55
2022-09-13T14:57:18.340Z,20.35
2022-09-13T14:59:48.727Z,17.48
2022-09-13T15:02:22.472Z,23.90
2022-09-13T15:04:56.462Z,15.30
2022-09-13T15:07:37.835Z,12.63
2022-09-13T15:10:07.184Z,6.63
2022-09-13T15:12:35.247Z,6.13
2022-09-13T15:15:36.881Z,8.07
2022-09-13T15:18:24.957Z,8.88
2022-09-13T15:21:04.054Z,14.48
2022-09-13T15:23:38.949Z,9.57
2022-09-13T15:26:26.906Z,7.45
2022-09-13T15:28:57.837Z,11.93
2022-09-13T15:31:29.368Z,21.80
2022-09-13T15:34:18.793Z,18.13
2022-09-13T15:36:47.106Z,15.07
2022-09-13T15:39:20.120Z,25.52
2022-09-13T15:41:57.997Z,38.25
2022-09-13T15:44:30.158Z,37.50
2022-09-13T15:47:24.320Z,46.80
2022-09-13T15:49:52.217Z,56.73
2022-09-13T15:52:31.348Z,44.83
2022-09-13T15:55:11.850Z,53.20
2022-09-13T15:57:43.457Z,51.67
2022-09-13T16:00:16.184Z,43.50
2022-09-13T16:02:42.927Z,50.75
2022-09-13T16:05:20.712Z,36.63
2022-09-13T16:07:47.280Z,39.38
2022-09-13T16:10:19.342Z,36.30
2022-09-13T16:12:48.630Z,44.70
2022-09-13T16:15:18.871Z,48.35
2022-09-13T16:17:46.170Z,37.25
2022-09-13T16:20:17.702Z,42.42
2022-09-13T16:22:44.391Z,50.33
2022-09-13T16:25:15.379Z,44.15
2022-09-13T16:27:48.643Z,46.88
2022-09-13T16:30:25.276Z,37.90
2022-09-13T16:32:51.829Z,54.40
2022-09-13T16:35:21.343Z,49.80
2022-09-13T16:37:53.488Z,42.25
2022-09-13T16:40:23.608Z,43.38
2022-09-13T16:42:50.775Z,65.85
2022-09-13T16:45:17.536Z,87.82
2022-09-13T16:47:44.162Z,118.70
2022-09-13T16:50:10.921Z,180.52
2022-09-13T16:52:37.726Z,213.63
2022-09-13T16:55:06.257Z,212.88
2022-09-13T16:57:33.525Z,221.05
2022-09-13T17:00:00.408Z,233.25
2022-09-13T17:02:27.420Z,248.13
2022-09-13T17:04:59.996Z,257.33
2022-09-13T17:07:26.646Z,235.23
2022-09-13T17:09:54.781Z,279.13
2022-09-13T17:12:21.382Z,289.75
2022-09-13T17:14:50.302Z,279.05
2022-09-13T17:17:17.605Z,285.63
2022-09-13T17:19:44.984Z,279.35
2022-09-13T17:22:20.602Z,295.80
2022-09-13T17:24:52.449Z,277.43
2022-09-13T17:27:19.194Z,276.50
2022-09-13T17:29:45.806Z,278.70
2022-09-13T17:32:12.556Z,293.93
2022-09-13T17:34:54.744Z,255.75
2022-09-13T17:37:21.492Z,248.73
2022-09-13T17:39:51.219Z,236.02
2022-09-13T17:42:22.500Z,255.87
2022-09-13T17:44:50.074Z,280.13
2022-09-13T17:47:16.934Z,255.03
2022-09-13T17:49:45.510Z,279.03
2022-09-13T17:52:13.896Z,266.25
2022-09-13T17:54:40.564Z,244.35
2022-09-13T17:57:08.246Z,264.65
2022-09-13T17:59:35.037Z,295.98
2022-09-13T18:02:01.763Z,286.40
2022-09-13T18:04:29.004Z,310.90
2022-09-13T18:06:56.088Z,301.98
2022-09-13T18:09:26.358Z,315.63
2022-09-13T18:12:01.805Z,311.42
2022-09-13T18:14:37.427Z,289.52
2022-09-13T18:17:12.869Z,285.08
2022-09-13T18:19:47.426Z,301.37
2022-09-13T18:22:17.018Z,306.63
2022-09-13T18:24:43.950Z,271.90
2022-09-13T18:27:12.046Z,289.57
2022-09-13T18:29:38.756Z,288.15
2022-09-13T18:32:08.319Z,296.23
2022-09-13T18:34:55.243Z,281.23
2022-09-13T18:37:22.148Z,273.67
2022-09-13T18:39:48.862Z,264.40
2022-09-13T18:42:18.432Z,250.57
2022-09-13T18:59:17.631Z,204.07
2022-09-13T19:01:45.543Z,188.02
2022-09-13T19:04:20.562Z,221.23
2022-09-13T19:06:53.319Z,225.80
2022-09-13T19:12:24.260Z,227.70
2022-09-13T19:14:58.819Z,218.50
2022-09-13T19:17:28.091Z,199.73
2022-09-13T19:19:58.409Z,194.43
2022-09-13T19:22:31.344Z,196.45
2022-09-13T19:24:57.936Z,191.48
2022-09-13T19:27:24.555Z,194.48
2022-09-13T19:29:53.662Z,215.13
2022-09-13T19:32:28.707Z,192.82
2022-09-13T19:34:58.262Z,194.52
2022-09-13T19:37:24.936Z,218.15
2022-09-13T19:39:51.674Z,204.30
2022-09-13T19:42:18.474Z,208.95
2022-09-13T19:44:45.104Z,206.07
2022-09-13T19:49:59.031Z,226.07
2022-09-13T19:52:26.022Z,206.77
2022-09-13T19:55:03.607Z,244.75
2022-09-13T19:57:30.813Z,203.93
2022-09-13T20:00:04.098Z,198.10
2022-09-13T20:02:34.483Z,196.27
2022-09-13T20:05:09.974Z,188.00
2022-09-13T20:07:36.677Z,195.45
2022-09-13T20:10:03.538Z,168.23
2022-09-13T20:12:30.219Z,175.52
2022-09-13T20:14:56.855Z,191.52
2022-09-13T20:17:26.063Z,198.85
2022-09-13T20:20:01.624Z,212.60
2022-09-13T20:22:28.241Z,213.95
2022-09-13T20:24:54.855Z,204.27
2022-09-13T20:27:21.606Z,194.90
2022-09-13T20:29:48.638Z,202.75
2022-09-13T20:32:16.888Z,204.23
2022-09-13T20:34:45.701Z,219.25
2022-09-13T20:37:12.719Z,214.82
2022-09-13T20:39:40.436Z,218.95
2022-09-13T20:42:07.140Z,217.90
2022-09-13T20:44:33.861Z,201.37
2022-09-13T20:47:00.556Z,210.52
2022-09-13T20:49:30.399Z,224.27
2022-09-13T20:51:56.994Z,210.18
2022-09-13T20:54:23.683Z,215.70
2022-09-13T20:56:57.191Z,226.18
2022-09-13T20:59:23.868Z,226.90
2022-09-13T21:01:50.807Z,222.32
2022-09-13T21:04:17.570Z,214.07
2022-09-13T21:07:09.882Z,218.85
2022-09-13T21:09:38.996Z,226.55
2022-09-13T21:12:15.246Z,227.10
2022-09-13T21:14:42.073Z,225.30
2022-09-13T21:17:12.087Z,226.63
2022-09-13T21:19:38.732Z,230.57
2022-09-13T21:22:08.915Z,243.90
2022-09-13T21:24:38.192Z,267.92
2022-09-13T21:27:06.171Z,258.10
2022-09-13T21:29:34.238Z,261.17
2022-09-13T21:32:03.634Z,277.55
2022-09-13T21:34:30.348Z,277.20
2022-09-13T21:36:57.285Z,287.23
2022-09-13T21:39:26.776Z,268.05
2022-09-13T21:41:53.663Z,266.25
2022-09-13T21:44:20.382Z,255.55
2022-09-13T21:46:51.589Z,272.65
2022-09-13T21:49:21.980Z,275.10
2022-09-13T21:51:49.847Z,285.83
2022-09-13T21:54:21.191Z,271.38
2022-09-13T21:56:55.647Z,290.55
2022-09-13T21:59:23.542Z,289.15
2022-09-13T22:01:55.028Z,288.13
2022-09-13T22:04:24.599Z,302.93
2022-09-13T22:06:53.477Z,299.10
2022-09-13T22:09:26.721Z,309.88
2022-09-13T22:11:54.993Z,317.37
2022-09-13T22:14:22.431Z,295.35
2022-09-13T22:16:50.338Z,317.08
2022-09-13T22:19:23.475Z,322.10
2022-09-13T22:21:54.643Z,314.83
2022-09-13T22:24:23.810Z,324.30
2022-09-13T22:26:52.934Z,325.15
2022-09-13T22:29:20.411Z,314.63
2022-09-13T22:31:49.880Z,330.95
2022-09-13T22:34:20.437Z,326.42
2022-09-13T22:36:47.104Z,316.48
2022-09-13T22:39:16.125Z,299.20
2022-09-13T22:41:43.364Z,305.13
2022-09-13T22:44:10.421Z,288.05
2022-09-13T22:46:40.555Z,283.25
2022-09-13T22:49:11.249Z,300.23
2022-09-13T22:51:37.948Z,280.65
2022-09-13T22:54:07.161Z,279.40
2022-09-13T22:56:36.427Z,275.90
2022-09-13T22:59:08.865Z,282.83
2022-09-13T23:01:36.128Z,289.73
2022-09-13T23:04:03.652Z,294.37
2022-09-13T23:06:31.579Z,305.95
2022-09-13T23:09:00.781Z,298.02
2022-09-13T23:11:29.060Z,297.00
2022-09-13T23:13:58.761Z,296.55
2022-09-13T23:16:33.335Z,291.55
2022-09-13T23:19:00.349Z,282.53
2022-09-13T23:21:34.446Z,284.80
2022-09-13T23:24:02.817Z,290.55
2022-09-13T23:26:29.958Z,288.52
2022-09-13T23:28:59.760Z,286.80
2022-09-13T23:31:31.431Z,299.73
2022-09-13T23:34:03.414Z,300.77
2022-09-13T23:36:34.589Z,335.55
2022-09-13T23:39:04.581Z,346.45
2022-09-13T23:41:33.091Z,301.92
2022-09-13T23:44:01.007Z,316.95
2022-09-13T23:46:27.921Z,309.15
2022-09-13T23:48:54.480Z,311.70
2022-09-13T23:51:23.787Z,316.60
2022-09-13T23:53:52.439Z,322.23
2022-09-13T23:56:20.073Z,298.52
2022-09-13T23:58:46.740Z,313.48
